KFRI/FRI METAR and TAF weather

Enter ICAO airport designator
Station Type Date Time Source
KFRI METAR 2020/07/07 08:56 UTC NOAA

KFRI 070856Z AUTO 00000KT 8SM CLR 23/21 A2996 RMK AO2 SLP133 T02270211 55019


Station Type Date Time Source
KFRI Decoded METAR 2020/07/07 08:56 UTC NOAA

Fort Riley, Marshall AAF Ft Riley, KS, United States (KFRI) 39-03-20N 096-45-51W
Jul 07, 2020 - 04:56 AM EDT / 2020.07.07 0856 UTC
Wind: Calm:0
Visibility: 8 mile(s):0
Sky conditions: clear
Temperature: 72.9 F (22.7 C)
Dew Point: 70.0 F (21.1 C)
Relative Humidity: 90%
Pressure (altimeter): 29.96 in. Hg (1014 hPa)
Pressure tendency: 0.06 inches (1.9 hPa) lower than three hours ago
ob: KFRI 070856Z AUTO 00000KT 8SM CLR 23/21 A2996 RMK AO2 SLP133 T02270211 55019
cycle: 9

Station Type Date Time Source
KFRI TAF 2020/07/07 05:20 UTC NOAA

TAF KFRI 070500Z 0705/0811 VRB06KT 9999 SKC QNH2999INS
BECMG 0714/0715 18006KT 9999 FEW050 QNH2999INS TX33/0721Z TN22/0708Z

Example: see airport list